KHTS

Tri-State / Milton J Ferguson Field Airport

Huntington, West Virginia, USA
KHTS 181140Z 1812/1912 24006KT P6SM SCT045
Issued Valid From Valid To
Jun-18 @ 11:40 UTC
(2 hours ago)
Jun-18 @ 12:00 UTC
(an hour ago)
Jun-19 @ 12:00 UTC
(in 23 hours)
Jun-18 @ 12:00 to Jun-19 @ 12:00
KHTS 181140Z 1812/1912 24006KT P6SM SCT045
Wind Visibility Clouds
240° at 6 knots Greater than 6 miles
  • Scattered at 4,500' AGL
KHTS 181140Z 1812/1912 24006KT P6SM SCT045
Issued Jun-18 @ 11:40 UTC
(2 hours ago)
Valid From Jun-18 @ 12:00 UTC
(an hour ago)
Valid To Jun-19 @ 12:00 UTC
(in 23 hours)
Jun-18 @ 12:00 - Jun-19 @ 12:00
Wind Visibility
240° at 6 knots Greater than 6 miles
Clouds
  • Scattered at 4,500' AGL